Time;durP1;ratioP1;P1;durP2;ratioP2;P2;SDS_P1;SDS_P2;PMS_P1;PMS_P2;Temp;Humidity;BMP_temperature;BMP_pressure;BME280_temperature;BME280_humidity;BME280_pressure;Samples;Min_cycle;Max_cycle;Signal;HPM_P1;HPM_P2
2023/06/13 00:01:56;;;;;;;;;31.67;28.33;;;;;20.83;72.22;100788.25;4941022;28;45724;-75
2023/06/13 00:04:23;;;;;;;;;27.00;24.33;;;;;20.79;71.21;100782.06;4939128;28;45701;-76
2023/06/13 00:06:54;;;;;;;;;28.67;27.00;;;;;20.84;71.25;100795.38;4941025;28;45405;-76
2023/06/13 00:09:20;;;;;;;;;25.00;24.33;;;;;20.78;70.80;100788.31;4952011;28;45378;-76
2023/06/13 00:11:49;;;;;;;;;31.33;28.00;;;;;20.72;71.96;100789.31;4939413;28;47240;-75
2023/06/13 00:14:16;;;;;;;;;32.00;28.67;;;;;20.62;71.74;100776.97;4940551;28;45410;-78
2023/06/13 00:16:43;;;;;;;;;24.33;24.33;;;;;20.44;72.43;100756.66;4940995;28;45262;-76
2023/06/13 00:19:09;;;;;;;;;26.00;26.00;;;;;20.62;72.34;100784.16;4940504;28;45384;-76
2023/06/13 00:21:35;;;;;;;;;28.67;27.33;;;;;20.54;72.11;100771.75;4938724;28;47162;-76
2023/06/13 00:24:01;;;;;;;;;31.00;29.67;;;;;20.47;72.63;100774.50;4940184;28;45285;-77
2023/06/13 00:26:26;;;;;;;;;31.00;26.00;;;;;20.44;72.97;100769.19;4940838;28;45428;-76
2023/06/13 00:28:52;;;;;;;;;32.00;29.33;;;;;20.32;72.59;100754.19;4940023;28;45449;-76
2023/06/13 00:31:17;;;;;;;;;31.67;28.33;;;;;20.48;72.89;100792.41;4940829;28;46017;-76
2023/06/13 00:33:43;;;;;;;;;27.67;26.00;;;;;20.37;73.07;100775.59;4940262;28;45452;-76
2023/06/13 00:36:09;;;;;;;;;32.00;30.00;;;;;20.32;72.99;100765.81;4940742;28;45397;-76
2023/06/13 00:38:36;;;;;;;;;26.00;25.67;;;;;20.42;72.69;100784.47;4939954;28;45480;-76
2023/06/13 00:41:02;;;;;;;;;33.00;30.00;;;;;20.23;73.48;100757.03;4938890;28;47703;-76
2023/06/13 00:43:28;;;;;;;;;28.67;26.33;;;;;20.23;72.78;100765.09;4939206;28;45227;-76
2023/06/13 00:45:54;;;;;;;;;31.33;29.67;;;;;20.22;72.38;100761.50;4940797;28;45476;-76
2023/06/13 00:48:21;;;;;;;;;26.33;25.67;;;;;20.05;73.19;100740.31;4939934;28;45361;-76
2023/06/13 00:50:47;;;;;;;;;30.67;27.33;;;;;20.09;73.05;100752.75;4940044;28;46654;-76
2023/06/13 00:53:18;;;;;;;;;35.00;30.67;;;;;20.21;72.71;100778.50;4938104;28;45292;-76
2023/06/13 00:55:44;;;;;;;;;26.67;26.67;;;;;20.11;73.60;100761.69;4940369;28;45388;-77
2023/06/13 00:58:11;;;;;;;;;28.67;26.33;;;;;20.05;73.54;100752.81;4942348;28;45262;-76
2023/06/13 01:00:38;;;;;;;;;30.33;29.33;;;;;20.11;73.50;100772.41;4943232;28;45361;-76
2023/06/13 01:03:09;;;;;;;;;33.33;29.00;;;;;20.08;73.15;100761.72;4943790;28;45280;-76
2023/06/13 01:05:38;;;;;;;;;30.00;28.67;;;;;19.91;74.07;100739.63;4943354;28;45400;-76
2023/06/13 01:08:08;;;;;;;;;27.67;27.33;;;;;19.92;72.94;100749.44;4943570;28;45527;-75
2023/06/13 01:10:34;;;;;;;;;29.67;28.00;;;;;19.88;74.09;100754.00;4942724;28;46084;-76
2023/06/13 01:13:09;;;;;;;;;33.67;29.33;;;;;19.98;73.63;100767.25;4942642;28;45502;-76
2023/06/13 01:15:41;;;;;;;;;30.00;26.00;;;;;19.77;74.00;100736.25;4942650;28;45472;-76
2023/06/13 01:18:10;;;;;;;;;29.67;27.00;;;;;19.72;73.91;100728.28;4946852;28;47327;-76
2023/06/13 01:20:37;;;;;;;;;32.00;30.33;;;;;19.59;74.42;100708.75;4942748;28;46165;-76
2023/06/13 01:23:06;;;;;;;;;33.33;29.67;;;;;19.85;73.80;100755.81;4943319;28;45385;-76
2023/06/13 01:25:57;;;;;;;;;33.33;30.67;;;;;19.70;73.85;100737.25;4942947;28;45290;-76
2023/06/13 01:28:24;;;;;;;;;32.67;29.00;;;;;19.56;74.88;100718.66;4942867;28;45264;-76
2023/06/13 01:30:51;;;;;;;;;31.00;26.33;;;;;19.62;74.75;100726.59;4941397;28;46592;-76
2023/06/13 01:33:18;;;;;;;;;30.33;28.33;;;;;19.70;74.61;100737.25;4942975;28;45228;-76
2023/06/13 01:35:43;;;;;;;;;29.67;29.67;;;;;19.65;74.38;100731.91;4942088;28;45372;-76
2023/06/13 01:38:09;;;;;;;;;30.00;29.33;;;;;19.50;74.28;100713.38;4942950;28;45332;-76
2023/06/13 01:40:34;;;;;;;;;35.67;32.00;;;;;19.48;74.05;100721.44;4942607;28;46565;-76
2023/06/13 01:43:00;;;;;;;;;34.33;31.67;;;;;19.59;74.30;100748.97;4943302;28;45637;-75
2023/06/13 01:45:26;;;;;;;;;34.67;29.67;;;;;19.60;74.09;100750.75;4942469;28;45574;-75
2023/06/13 01:48:13;;;;;;;;;31.00;30.00;;;;;19.43;74.21;100728.66;4943121;28;45345;-75
2023/06/13 01:51:00;;;;;;;;;33.67;31.00;;;;;19.50;73.49;100735.72;4942127;28;46586;-75
2023/06/13 01:53:31;;;;;;;;;31.67;30.33;;;;;19.45;74.71;100729.53;4939398;28;45282;-76
2023/06/13 01:56:02;;;;;;;;;33.00;31.67;;;;;19.43;74.52;100736.69;4941251;28;45363;-76
2023/06/13 01:58:50;;;;;;;;;33.00;29.00;;;;;19.34;73.42;100731.44;4942274;28;45223;-76
2023/06/13 02:01:18;;;;;;;;;29.00;28.00;;;;;19.43;74.78;100745.59;4942729;28;48092;-76
2023/06/13 02:03:43;;;;;;;;;33.33;31.33;;;;;19.35;73.73;100730.53;4942337;28;45520;-76
2023/06/13 02:06:09;;;;;;;;;33.00;30.33;;;;;19.32;74.30;100733.25;4938489;28;45295;-76
2023/06/13 02:08:34;;;;;;;;;34.67;31.00;;;;;19.31;74.63;100745.78;4941572;28;45488;-76
2023/06/13 02:11:00;;;;;;;;;35.33;32.33;;;;;19.36;74.88;100737.69;4942285;28;45524;-75
2023/06/13 02:13:25;;;;;;;;;37.67;33.33;;;;;19.35;74.50;100739.50;4942422;28;45436;-76
2023/06/13 02:15:50;;;;;;;;;35.67;31.33;;;;;19.22;74.72;100713.75;4942822;28;45504;-75
2023/06/13 02:18:16;;;;;;;;;30.33;29.33;;;;;19.13;74.49;100704.03;4943557;28;48624;-76
2023/06/13 02:20:41;;;;;;;;;38.33;32.33;;;;;19.27;74.75;100727.97;4941888;28;45283;-75
2023/06/13 02:23:08;;;;;;;;;33.00;30.67;;;;;19.17;74.99;100713.78;4933400;28;45259;-76
2023/06/13 02:25:33;;;;;;;;;38.67;32.00;;;;;19.14;75.12;100704.91;4940006;28;45465;-75
2023/06/13 02:27:58;;;;;;;;;37.67;32.67;;;;;19.09;74.40;100704.06;4942562;28;45445;-76
2023/06/13 02:30:24;;;;;;;;;30.67;29.33;;;;;19.18;74.79;100725.38;4941809;28;46588;-76
2023/06/13 02:32:50;;;;;;;;;30.67;27.67;;;;;19.16;73.96;100720.06;4942530;28;45285;-75
2023/06/13 02:35:16;;;;;;;;;34.67;29.67;;;;;19.18;74.96;100730.75;4941999;28;45437;-76
2023/06/13 02:37:41;;;;;;;;;36.67;30.67;;;;;19.18;74.60;100734.31;4942211;28;45322;-76
2023/06/13 02:40:10;;;;;;;;;33.00;30.00;;;;;19.12;74.85;100731.72;4942214;28;50946;-75
2023/06/13 02:42:36;;;;;;;;;36.00;32.67;;;;;18.94;74.26;100698.00;4942410;28;45235;-75
2023/06/13 02:45:01;;;;;;;;;40.00;32.33;;;;;18.99;74.82;100703.31;4941975;28;45396;-76
2023/06/13 02:47:26;;;;;;;;;37.67;31.67;;;;;19.00;74.85;100714.00;4940613;28;46101;-75
2023/06/13 02:49:52;;;;;;;;;36.67;30.33;;;;;18.94;74.80;100705.16;4941587;28;45327;-76
2023/06/13 02:52:19;;;;;;;;;33.33;30.33;;;;;18.98;74.48;100717.59;4942105;28;45322;-77
2023/06/13 02:54:45;;;;;;;;;35.67;30.00;;;;;18.83;74.29;100702.59;4955228;28;45528;-76
2023/06/13 02:57:11;;;;;;;;;39.33;32.33;;;;;18.70;74.81;100685.72;4943768;28;46057;-75
2023/06/13 02:59:36;;;;;;;;;39.33;33.00;;;;;18.89;75.10;100736.44;4940292;28;47564;-75
2023/06/13 03:02:02;;;;;;;;;37.67;32.67;;;;;18.85;75.30;100722.22;4941889;28;45267;-76
2023/06/13 03:04:28;;;;;;;;;40.00;32.33;;;;;18.65;75.10;100690.28;4940466;28;45442;-75
2023/06/13 03:06:54;;;;;;;;;39.00;31.67;;;;;18.84;75.07;100731.13;4941685;28;45327;-76
2023/06/13 03:09:19;;;;;;;;;33.67;31.67;;;;;18.77;75.01;100727.66;4940369;28;45249;-76
2023/06/13 03:11:45;;;;;;;;;37.67;32.33;;;;;18.79;75.18;100741.00;4940409;28;45263;-75
2023/06/13 03:14:11;;;;;;;;;33.67;31.67;;;;;18.67;75.46;100720.56;4941498;28;45270;-75
2023/06/13 03:16:36;;;;;;;;;38.33;32.33;;;;;18.75;75.36;100736.59;4944420;28;45331;-75
2023/06/13 03:19:02;;;;;;;;;35.67;32.00;;;;;18.49;75.63;100694.88;4941542;28;46012;-75
2023/06/13 03:21:28;;;;;;;;;32.67;30.33;;;;;18.55;75.80;100710.00;4941574;28;45425;-75
2023/06/13 03:23:53;;;;;;;;;33.00;29.33;;;;;18.52;75.71;100708.22;4941351;28;45508;-74
2023/06/13 03:26:19;;;;;;;;;34.00;31.67;;;;;18.54;75.35;100717.13;4941498;28;45601;-75
2023/06/13 03:28:45;;;;;;;;;35.67;31.00;;;;;18.55;75.31;100720.69;4941070;28;45489;-75
2023/06/13 03:31:11;;;;;;;;;36.67;31.00;;;;;18.63;75.68;100729.53;4937210;28;45274;-75
2023/06/13 03:33:36;;;;;;;;;35.67;29.33;;;;;18.53;75.71;100714.47;4941147;28;46205;-75
2023/06/13 03:36:02;;;;;;;;;40.67;31.67;;;;;18.53;75.63;100723.38;4941168;28;45500;-75
2023/06/13 03:38:28;;;;;;;;;40.67;32.33;;;;;18.57;75.96;100734.97;4940972;28;45581;-75
2023/06/13 03:40:54;;;;;;;;;32.67;30.67;;;;;18.49;75.92;100724.31;4939628;28;45424;-75
2023/06/13 03:43:19;;;;;;;;;42.67;34.67;;;;;18.39;76.47;100708.38;4941020;28;45438;-75
2023/06/13 03:45:45;;;;;;;;;43.00;34.33;;;;;18.26;76.34;100679.03;4941192;28;45313;-75
2023/06/13 03:48:10;;;;;;;;;42.67;34.67;;;;;18.44;76.07;100720.78;4941348;28;45340;-75
2023/06/13 03:50:35;;;;;;;;;41.00;33.33;;;;;18.30;75.87;100696.84;4940587;28;45378;-75
2023/06/13 03:53:01;;;;;;;;;39.00;32.67;;;;;18.39;76.30;100713.72;4941276;28;45273;-75
2023/06/13 03:55:26;;;;;;;;;36.33;32.00;;;;;18.38;76.47;100728.88;4940391;28;45614;-75
2023/06/13 03:57:52;;;;;;;;;37.67;33.00;;;;;18.26;76.36;100708.47;4941177;28;45307;-75
2023/06/13 04:00:17;;;;;;;;;32.00;29.00;;;;;18.29;76.02;100716.47;4940511;28;45393;-75
2023/06/13 04:02:45;;;;;;;;;29.00;29.00;;;;;18.36;76.38;100727.13;4941180;28;45432;-75
2023/06/13 04:05:12;;;;;;;;;33.67;31.67;;;;;18.31;76.33;100728.03;4940332;28;45517;-75
2023/06/13 04:07:38;;;;;;;;;35.67;33.00;;;;;18.27;76.61;100722.75;4939313;28;47271;-75
2023/06/13 04:10:05;;;;;;;;;43.00;33.67;;;;;18.36;76.66;100741.38;4939298;28;45221;-75
2023/06/13 04:12:30;;;;;;;;;43.33;37.00;;;;;18.36;75.89;100743.19;4940568;28;45523;-75
2023/06/13 04:14:56;;;;;;;;;39.33;33.00;;;;;18.22;76.40;100713.84;4940209;28;45388;-75
2023/06/13 04:17:21;;;;;;;;;38.00;32.33;;;;;18.26;76.36;100721.88;4943153;28;45674;-75
2023/06/13 04:19:48;;;;;;;;;41.00;34.67;;;;;18.34;76.53;100729.78;4940304;28;45481;-75
2023/06/13 04:22:16;;;;;;;;;37.67;34.67;;;;;18.10;76.20;100701.47;4940495;28;45309;-75
2023/06/13 04:24:42;;;;;;;;;33.33;32.00;;;;;18.32;76.25;100743.22;4940093;28;45475;-75
2023/06/13 04:27:08;;;;;;;;;38.33;33.67;;;;;18.22;76.69;100728.13;4943675;28;45903;-75
2023/06/13 04:29:34;;;;;;;;;38.00;33.33;;;;;18.38;76.32;100744.06;4940379;28;45491;-76
2023/06/13 04:32:03;;;;;;;;;34.67;30.67;;;;;18.34;76.62;100751.22;4940312;28;45399;-75
2023/06/13 04:34:29;;;;;;;;;38.33;32.67;;;;;18.24;76.63;100725.44;4940313;28;45406;-75
2023/06/13 04:36:57;;;;;;;;;41.33;33.00;;;;;18.38;76.42;100755.66;4940072;28;45365;-77
2023/06/13 04:39:26;;;;;;;;;41.33;33.67;;;;;18.36;76.60;100745.84;4954788;28;45359;-76
2023/06/13 04:41:55;;;;;;;;;42.67;34.67;;;;;18.26;76.49;100732.56;4934957;28;45327;-74
2023/06/13 04:44:25;;;;;;;;;43.33;37.00;;;;;18.26;76.44;100721.88;4939907;28;45720;-75
2023/06/13 04:46:51;;;;;;;;;33.33;30.33;;;;;18.22;76.34;100714.75;4940488;28;45421;-75
2023/06/13 04:49:16;;;;;;;;;34.33;31.00;;;;;18.23;77.11;100723.66;4939782;28;45245;-76
2023/06/13 04:51:42;;;;;;;;;35.67;30.67;;;;;18.20;76.68;100712.97;4940283;28;45386;-75
2023/06/13 04:54:09;;;;;;;;;31.33;30.00;;;;;18.37;75.97;100743.16;4938183;28;45911;-75
2023/06/13 04:56:37;;;;;;;;;36.33;33.00;;;;;18.40;76.36;100744.91;4937075;28;48025;-76
2023/06/13 04:59:03;;;;;;;;;38.67;30.67;;;;;18.32;76.45;100736.97;4936972;28;45335;-75
2023/06/13 05:01:32;;;;;;;;;34.33;31.67;;;;;18.28;75.80;100728.06;4940273;28;45326;-76
2023/06/13 05:03:57;;;;;;;;;36.00;32.00;;;;;18.33;76.16;100741.41;4935905;28;46199;-75
2023/06/13 05:06:23;;;;;;;;;41.00;32.00;;;;;18.43;76.13;100744.88;4938374;28;46721;-75
2023/06/13 05:08:49;;;;;;;;;34.33;29.67;;;;;18.36;76.25;100746.75;4938049;28;45304;-74
2023/06/13 05:11:14;;;;;;;;;33.33;30.00;;;;;18.29;76.25;100721.84;4939821;28;45366;-75
2023/06/13 05:13:40;;;;;;;;;39.33;33.00;;;;;18.32;76.08;100718.25;4938812;28;45495;-75
2023/06/13 05:16:05;;;;;;;;;37.00;33.67;;;;;18.52;76.32;100761.78;4939832;28;46606;-75
2023/06/13 05:18:31;;;;;;;;;37.33;33.33;;;;;18.37;75.91;100729.78;4941045;28;45342;-75
2023/06/13 05:21:00;;;;;;;;;38.67;34.00;;;;;18.60;75.58;100764.38;4936499;28;45457;-75
2023/06/13 05:23:26;;;;;;;;;34.33;32.33;;;;;18.52;75.60;100750.19;4938147;28;45586;-75
2023/06/13 05:25:51;;;;;;;;;40.00;33.33;;;;;18.55;75.83;100752.81;4938396;28;46481;-75
2023/06/13 05:28:18;;;;;;;;;38.33;33.00;;;;;18.60;76.14;100752.75;4938744;28;45422;-74
2023/06/13 05:30:44;;;;;;;;;36.67;33.00;;;;;18.69;76.03;100764.28;4954329;28;45351;-75
2023/06/13 05:33:09;;;;;;;;;38.33;32.67;;;;;18.59;76.04;100746.53;4940025;28;45567;-75
2023/06/13 05:35:35;;;;;;;;;37.00;32.67;;;;;18.60;76.24;100740.28;4938596;28;45445;-75
2023/06/13 05:38:01;;;;;;;;;39.33;32.67;;;;;18.68;75.80;100749.13;4939160;28;45349;-76
2023/06/13 05:40:26;;;;;;;;;34.00;30.33;;;;;18.79;75.96;100743.69;4937976;28;45405;-75
2023/06/13 05:42:51;;;;;;;;;38.33;31.33;;;;;18.70;75.75;100725.00;4939817;28;45751;-75
2023/06/13 05:45:16;;;;;;;;;42.00;34.33;;;;;18.88;75.43;100751.66;4954570;28;47139;-75
2023/06/13 05:47:42;;;;;;;;;44.67;36.00;;;;;18.88;74.92;100737.38;4943202;28;45420;-75
2023/06/13 05:50:07;;;;;;;;;35.00;29.67;;;;;18.85;75.03;100740.97;4942681;28;45456;-76
2023/06/13 05:52:33;;;;;;;;;35.67;31.00;;;;;18.96;75.27;100749.78;4942774;28;45625;-76
2023/06/13 05:54:59;;;;;;;;;38.33;31.67;;;;;18.95;74.59;100736.38;4940968;28;47950;-74
2023/06/13 05:57:36;;;;;;;;;39.33;35.00;;;;;18.88;74.85;100730.22;4942887;28;45241;-75
2023/06/13 06:00:02;;;;;;;;;38.33;32.33;;;;;18.92;75.32;100728.38;4942521;28;44731;-74
2023/06/13 06:02:28;;;;;;;;;42.33;34.67;;;;;19.08;74.98;100746.06;4941305;28;46292;-74
2023/06/13 06:04:55;;;;;;;;;38.00;32.33;;;;;19.17;74.64;100753.97;4942168;28;45452;-74
2023/06/13 06:07:20;;;;;;;;;34.33;30.33;;;;;19.01;74.64;100723.78;4942704;28;45387;-75
2023/06/13 06:09:45;;;;;;;;;36.67;32.67;;;;;19.30;74.57;100759.22;4937437;28;45663;-74
2023/06/13 06:12:11;;;;;;;;;44.67;36.00;;;;;19.23;74.06;100751.22;4939123;28;50835;-75
2023/06/13 06:14:36;;;;;;;;;34.67;32.67;;;;;19.13;73.69;100733.50;4940520;28;47586;-74
2023/06/13 06:17:02;;;;;;;;;44.67;36.00;;;;;19.15;74.49;100726.31;4945257;28;45401;-74
2023/06/13 06:19:27;;;;;;;;;35.33;32.00;;;;;19.27;74.41;100727.97;4942441;28;45390;-75
2023/06/13 06:21:52;;;;;;;;;38.00;33.67;;;;;19.33;74.16;100735.06;4942408;28;45521;-74
2023/06/13 06:24:18;;;;;;;;;40.00;34.67;;;;;19.41;74.00;100733.16;4950810;28;56281;-74
2023/06/13 06:26:43;;;;;;;;;40.00;35.33;;;;;19.40;73.74;100707.25;4942283;28;45305;-74
2023/06/13 06:29:08;;;;;;;;;41.00;36.33;;;;;19.57;73.09;100707.88;4942267;28;45433;-74
2023/06/13 06:31:33;;;;;;;;;43.33;34.00;;;;;19.95;73.03;100736.00;4956543;28;60423;-74
2023/06/13 06:33:59;;;;;;;;;38.67;32.00;;;;;20.27;73.03;100738.13;4941816;28;51779;-74
2023/06/13 06:36:24;;;;;;;;;39.00;33.67;;;;;20.39;72.00;100710.22;4942154;28;45453;-74
2023/06/13 06:38:50;;;;;;;;;35.33;31.67;;;;;20.69;71.43;100710.59;4939644;28;45349;-74
2023/06/13 06:41:16;;;;;;;;;43.00;33.00;;;;;21.08;69.81;100726.88;4942588;28;45416;-74
2023/06/13 06:43:42;;;;;;;;;35.33;31.00;;;;;21.28;69.50;100704.94;4937853;28;45409;-74
2023/06/13 06:46:08;;;;;;;;;42.00;35.00;;;;;21.55;68.45;100699.00;4941747;28;45277;-74
2023/06/13 06:48:33;;;;;;;;;37.67;32.00;;;;;21.96;66.23;100726.75;4940223;28;45397;-74
2023/06/13 06:50:59;;;;;;;;;22.00;21.00;;;;;22.09;67.28;100700.41;4941764;28;45434;-75
2023/06/13 06:53:24;;;;;;;;;37.33;32.00;;;;;22.39;64.42;100700.59;4939893;28;46912;-73
2023/06/13 06:55:50;;;;;;;;;35.33;30.67;;;;;22.72;64.83;100707.78;4940621;28;45472;-74
2023/06/13 06:58:15;;;;;;;;;32.67;31.00;;;;;23.11;65.90;100721.09;4942942;28;45255;-74
2023/06/13 07:00:41;;;;;;;;;32.33;30.33;;;;;23.40;61.77;100720.25;4940701;28;45270;-76
2023/06/13 07:03:07;;;;;;;;;24.33;21.00;;;;;23.56;64.40;100709.88;4941834;28;45504;-75
2023/06/13 07:05:32;;;;;;;;;23.67;23.00;;;;;23.87;62.21;100725.16;4941218;28;45353;-76
2023/06/13 07:07:58;;;;;;;;;25.33;23.00;;;;;24.12;58.58;100723.41;4953332;28;45405;-76
2023/06/13 07:10:25;;;;;;;;;24.33;21.00;;;;;24.47;58.53;100725.88;4936462;28;47166;-74
2023/06/13 07:12:50;;;;;;;;;22.67;20.00;;;;;24.70;60.20;100722.38;4932571;28;45358;-75
2023/06/13 07:15:15;;;;;;;;;22.67;20.67;;;;;24.81;54.77;100693.13;4940890;28;45378;-75
2023/06/13 07:17:41;;;;;;;;;22.33;18.67;;;;;25.22;53.43;100715.97;4944832;28;45627;-75
2023/06/13 07:20:08;;;;;;;;;18.00;18.00;;;;;25.33;55.29;100685.81;4941257;28;45488;-75
2023/06/13 07:22:33;;;;;;;;;22.00;19.00;;;;;25.62;54.06;100716.25;4941419;28;46462;-75
2023/06/13 07:24:59;;;;;;;;;19.00;18.00;;;;;25.81;54.58;100711.00;4941171;28;45286;-75
2023/06/13 07:27:24;;;;;;;;;20.00;18.00;;;;;26.12;53.86;100719.66;4940503;28;45347;-75
2023/06/13 07:29:49;;;;;;;;;20.25;18.50;;;;;26.35;49.69;100723.22;4940323;28;45354;-75
2023/06/13 07:32:15;;;;;;;;;23.67;21.67;;;;;26.49;49.27;100718.09;4941404;28;48342;-75
2023/06/13 07:34:40;;;;;;;;;17.25;17.25;;;;;26.62;52.67;100715.78;4940737;28;45363;-75
2023/06/13 07:37:05;;;;;;;;;17.50;17.25;;;;;26.62;48.42;100717.63;4941579;28;45356;-75
2023/06/13 07:39:31;;;;;;;;;20.00;17.25;;;;;26.67;52.09;100730.03;4938958;28;45802;-75
2023/06/13 07:41:56;;;;;;;;;20.00;16.50;;;;;26.51;47.63;100707.25;4943862;28;45454;-76
2023/06/13 07:44:21;;;;;;;;;19.25;16.00;;;;;26.66;53.02;100716.53;4939146;28;45282;-76
2023/06/13 07:46:47;;;;;;;;;21.00;18.75;;;;;26.96;47.81;100730.56;4941604;28;45449;-75
2023/06/13 07:49:13;;;;;;;;;19.25;17.50;;;;;27.05;48.68;100711.16;4940531;28;45536;-75
2023/06/13 07:51:39;;;;;;;;;20.25;20.00;;;;;27.38;49.27;100726.88;4940998;28;46460;-74
2023/06/13 07:54:04;;;;;;;;;22.50;19.75;;;;;27.56;48.51;100711.53;4954108;28;45430;-75
2023/06/13 07:56:30;;;;;;;;;18.00;17.75;;;;;27.84;47.14;100709.28;4938363;28;45192;-76
2023/06/13 07:58:55;;;;;;;;;13.00;11.25;;;;;28.04;48.27;100699.28;4935828;28;48578;-75
2023/06/13 08:01:22;;;;;;;;;18.25;16.25;;;;;28.31;46.91;100708.72;4955707;28;47091;-75
2023/06/13 08:03:47;;;;;;;;;20.00;17.00;;;;;28.50;46.50;100695.09;4938771;28;45239;-75
2023/06/13 08:06:12;;;;;;;;;17.00;15.25;;;;;28.91;46.21;100716.53;4940904;28;45218;-75
2023/06/13 08:08:38;;;;;;;;;18.50;14.50;;;;;29.11;46.29;100706.44;4939711;28;45247;-75
2023/06/13 08:11:03;;;;;;;;;19.00;18.00;;;;;29.35;46.94;100726.91;4940572;28;45215;-75
2023/06/13 08:13:28;;;;;;;;;17.25;17.25;;;;;29.54;41.00;100720.41;4940408;28;45211;-75
2023/06/13 08:15:54;;;;;;;;;16.75;15.50;;;;;29.82;41.10;100714.31;4940956;28;45429;-75
2023/06/13 08:18:19;;;;;;;;;19.25;17.50;;;;;30.10;42.76;100702.69;4943420;28;45663;-75
2023/06/13 08:20:45;;;;;;;;;17.75;15.25;;;;;30.46;41.83;100720.59;4940397;28;46567;-75
2023/06/13 08:23:12;;;;;;;;;21.25;19.25;;;;;30.47;41.51;100693.22;4940794;28;45278;-75
2023/06/13 08:25:37;;;;;;;;;18.75;18.75;;;;;30.59;41.56;100694.34;4941057;28;45329;-74
2023/06/13 08:28:06;;;;;;;;;15.25;14.00;;;;;30.89;42.17;100705.25;4940547;28;50344;-75
2023/06/13 08:30:31;;;;;;;;;20.00;17.75;;;;;31.18;38.23;100714.34;4940134;28;45638;-75
2023/06/13 08:32:59;;;;;;;;;19.50;17.75;;;;;31.35;37.40;100705.06;4939350;28;45188;-75
2023/06/13 08:35:25;;;;;;;;;18.00;17.50;;;;;31.49;37.69;100682.34;4940496;28;45424;-75
2023/06/13 08:37:50;;;;;;;;;15.00;15.00;;;;;31.89;35.08;100701.59;4940217;28;45343;-75
2023/06/13 08:40:19;;;;;;;;;18.50;15.75;;;;;32.07;36.97;100683.13;4939766;28;53087;-74
2023/06/13 08:42:45;;;;;;;;;19.80;19.60;;;;;32.44;36.82;100700.63;4939985;28;45333;-73
2023/06/13 08:45:11;;;;;;;;;17.80;17.80;;;;;32.47;39.20;100692.22;4940176;28;45329;-72
2023/06/13 08:47:38;;;;;;;;;15.50;15.50;;;;;32.51;35.30;100690.16;4940467;28;45568;-72
2023/06/13 08:50:04;;;;;;;;;17.40;16.00;;;;;32.70;36.81;100684.28;4940105;28;45341;-73
2023/06/13 08:52:39;;;;;;;;;19.25;15.75;;;;;32.93;34.98;100693.59;4940112;28;45174;-74
2023/06/13 08:55:08;;;;;;;;;19.40;15.80;;;;;33.18;36.28;100690.88;4952002;28;45381;-72
2023/06/13 08:57:37;;;;;;;;;14.40;14.40;;;;;33.34;38.24;100679.69;4940396;28;45508;-72
2023/06/13 09:00:06;;;;;;;;;18.00;17.00;;;;;33.63;36.15;100698.63;4938430;28;47141;-73
2023/06/13 09:02:32;;;;;;;;;16.60;14.60;;;;;33.74;33.92;100679.50;4940255;28;45421;-73
2023/06/13 09:04:58;;;;;;;;;13.80;12.60;;;;;34.00;38.08;100696.78;4950703;28;45459;-72
2023/06/13 09:07:25;;;;;;;;;15.25;13.25;;;;;33.90;34.20;100686.59;4954849;28;45311;-73
2023/06/13 09:09:52;;;;;;;;;12.60;11.80;;;;;33.99;35.00;100661.22;4937984;28;48407;-71
2023/06/13 09:12:18;;;;;;;;;14.60;14.60;;;;;34.04;33.15;100653.50;4938147;28;45488;-74
2023/06/13 09:14:45;;;;;;;;;15.00;15.00;;;;;34.27;34.98;100655.38;4937452;28;45464;-72
2023/06/13 09:17:11;;;;;;;;;10.00;10.00;;;;;34.61;30.24;100677.47;4943419;28;45360;-72
2023/06/13 09:19:37;;;;;;;;;17.20;15.60;;;;;34.77;32.18;100692.75;4942134;28;45361;-73
2023/06/13 09:22:02;;;;;;;;;12.00;11.25;;;;;34.81;32.92;100688.75;4938611;28;45454;-73
2023/06/13 09:24:28;;;;;;;;;10.00;10.00;;;;;34.95;31.33;100700.41;4950117;28;45361;-72
2023/06/13 09:26:54;;;;;;;;;18.00;16.60;;;;;34.84;34.22;100667.41;4942026;28;45548;-72
2023/06/13 09:29:19;;;;;;;;;18.75;16.00;;;;;35.08;29.64;100700.31;4942907;28;45354;-72
2023/06/13 09:31:45;;;;;;;;;14.75;13.00;;;;;35.07;33.91;100673.88;4958114;28;45399;-73
2023/06/13 09:34:14;;;;;;;;;15.50;15.50;;;;;35.30;32.85;100693.09;4943228;28;45586;-73
2023/06/13 09:36:39;;;;;;;;;16.20;12.40;;;;;35.33;30.51;100687.34;4941768;28;45472;-72
2023/06/13 09:39:05;;;;;;;;;16.25;14.00;;;;;35.33;29.36;100679.09;4942730;28;45476;-73
2023/06/13 09:41:31;;;;;;;;;14.75;14.25;;;;;35.39;28.87;100687.72;4941396;28;45355;-72
2023/06/13 09:44:03;;;;;;;;;13.20;10.40;;;;;35.54;30.33;100693.84;4942812;28;45460;-72
2023/06/13 09:46:28;;;;;;;;;17.60;15.80;;;;;35.56;31.63;100677.25;4940812;28;45656;-73
2023/06/13 09:48:53;;;;;;;;;15.00;14.50;;;;;35.70;28.40;100690.72;4942532;28;45575;-72
2023/06/13 09:51:21;;;;;;;;;17.25;15.25;;;;;35.55;28.47;100662.59;4942896;28;45247;-72
2023/06/13 09:53:49;;;;;;;;;16.00;14.40;;;;;35.58;28.07;100667.88;4942495;28;45448;-72
2023/06/13 09:56:15;;;;;;;;;15.40;13.00;;;;;35.92;26.77;100692.56;4954472;28;46073;-72
2023/06/13 09:58:41;;;;;;;;;15.00;15.00;;;;;35.96;29.04;100674.75;4942509;28;45445;-72
2023/06/13 10:01:14;;;;;;;;;17.75;15.25;;;;;36.13;29.35;100695.41;4954668;28;45259;-72
2023/06/13 10:03:41;;;;;;;;;9.60;9.60;;;;;36.02;25.97;100673.38;4942644;28;45557;-74
2023/06/13 10:06:06;;;;;;;;;15.80;15.80;;;;;36.20;25.19;100691.13;4955715;28;45918;-72
2023/06/13 10:08:33;;;;;;;;;11.25;11.25;;;;;36.29;27.16;100704.09;4942292;28;46273;-73
2023/06/13 10:11:05;;;;;;;;;14.20;13.80;;;;;35.96;22.97;100669.25;4956147;28;45387;-72
2023/06/13 10:13:44;;;;;;;;;14.80;14.20;;;;;36.08;26.60;100683.91;4942562;28;45397;-72
2023/06/13 10:16:12;;;;;;;;;15.60;14.40;;;;;36.18;26.97;100689.50;4944613;28;45491;-72
2023/06/13 10:18:40;;;;;;;;;14.80;14.80;;;;;36.21;25.86;100680.97;4958858;28;47993;-72
2023/06/13 10:21:10;;;;;;;;;14.20;13.60;;;;;36.26;25.43;100678.72;4947933;28;45410;-72
2023/06/13 10:23:42;;;;;;;;;14.60;13.20;;;;;36.40;25.97;100702.28;4942053;28;45416;-72
2023/06/13 10:26:12;;;;;;;;;12.40;12.40;;;;;36.30;25.21;100704.97;4936657;28;46994;-73
2023/06/13 10:29:23;;;;;;;;;14.80;12.60;;;;;36.16;23.70;100677.72;4954998;28;47753;-70
2023/06/13 10:32:43;;;;;;;;;12.80;12.80;;;;;36.40;26.20;100694.91;4941716;28;45458;-73
2023/06/13 10:35:11;;;;;;;;;14.80;13.80;;;;;36.39;25.73;100697.81;4843753;29;45400;-70
2023/06/13 10:37:59;;;;;;;;;14.40;13.40;;;;;36.23;25.96;100684.47;4948976;28;46089;-71
2023/06/13 10:40:49;;;;;;;;;13.80;13.20;;;;;36.45;26.06;100703.66;4941580;28;45745;-71
2023/06/13 10:43:23;;;;;;;;;13.60;12.40;;;;;36.40;25.59;100702.28;4940836;28;45492;-70
2023/06/13 10:45:52;;;;;;;;;15.40;14.40;;;;;36.30;24.62;100672.81;4940805;28;45362;-70
2023/06/13 10:48:54;;;;;;;;;18.00;16.20;;;;;36.39;23.28;100703.31;4940301;28;46015;-71
2023/06/13 10:51:25;;;;;;;;;14.60;13.00;;;;;36.51;24.38;100694.84;4901193;28;46409;-70
2023/06/13 10:53:57;;;;;;;;;10.20;9.60;;;;;36.54;25.19;100695.63;4934519;28;45364;-70
2023/06/13 10:56:29;;;;;;;;;11.80;11.60;;;;;36.45;23.57;100681.63;4938483;28;45344;-70
2023/06/13 10:59:13;;;;;;;;;12.80;12.80;;;;;36.60;24.47;100695.97;4940766;28;45414;-70
2023/06/13 11:01:40;;;;;;;;;14.60;14.60;;;;;36.55;24.18;100692.72;4941968;28;45367;-70
2023/06/13 11:04:16;;;;;;;;;16.80;15.00;;;;;36.53;23.92;100672.72;4941420;28;45508;-70
2023/06/13 11:06:44;;;;;;;;;15.20;14.20;;;;;36.73;24.14;100690.28;4955516;28;45324;-70
2023/06/13 11:09:20;;;;;;;;;12.40;12.40;;;;;36.64;24.11;100686.44;4939637;28;45618;-70
2023/06/13 11:11:51;;;;;;;;;16.20;15.00;;;;;36.70;24.49;100688.66;4939107;28;45506;-70